Portada
METAR-TAF:

METAR-TAF

Aeroports :

Westerly State Airport

Westerly, Rhode Island, Estats Units d'Amèrica

latitud: 41-20-59N, longitud: 071-47-56W, altitud: 24 m

Observació

L'informe es va fer fa 1 hora i 9 minuts, a les 22:53 UTC
Vent 6 kt amb direcció variable amb ràfegues de 14 kt
Temperatura 7°C
Humitat 57%
Pressió 1006 hPa
Visibilitat: 16.1 km
Cel clar

METAR: KWST 222253Z AUTO VRB06G14KT 10SM CLR 07/M01 A2972 RMK AO2 SLP065 T00721011

Hora: 19:02 (00:02 UTC)


TAF: manca

Observacions i pronòstics meteorològics de més de 4000 aeroports (METAR i TAF).

Les estacions disponibles són els punts grocs i vermells al mapa.

Posi el ratolí al punt desitjat per veure el nom de l'estació.

Feu clic per veure les observacions i els pronòstics meteorològics.

Per canviar el mapa: feu clic els botons verds amb una creu de color negre per apropar; al botó verd amb un guió per allunyar la imatge; o en les fletxes verdes per a mapes adjacents.


METAR-TAF: